createdAt,value
2023-02-11T00:00:19.426Z,21.23
2023-02-11T00:02:48.014Z,20.80
2023-02-11T00:05:15.538Z,21.40
2023-02-11T00:07:42.907Z,21.67
2023-02-11T00:10:10.560Z,20.57
2023-02-11T00:12:38.445Z,21.70
2023-02-11T00:15:08.673Z,20.57
2023-02-11T00:17:36.115Z,21.37
2023-02-11T00:20:07.218Z,21.80
2023-02-11T00:22:35.489Z,21.23
2023-02-11T00:25:02.868Z,22.70
2023-02-11T00:27:30.219Z,21.23
2023-02-11T00:29:57.547Z,20.77
2023-02-11T00:32:26.216Z,23.40
2023-02-11T00:34:55.150Z,23.33
2023-02-11T00:37:22.659Z,21.90
2023-02-11T00:39:50.851Z,22.43
2023-02-11T00:42:18.226Z,23.13
2023-02-11T00:44:45.563Z,21.47
2023-02-11T00:47:12.900Z,23.63
2023-02-11T00:49:41.842Z,23.83
2023-02-11T00:52:09.190Z,23.37
2023-02-11T00:54:36.558Z,24.03
2023-02-11T00:57:03.986Z,23.13
2023-02-11T00:59:31.388Z,23.90
2023-02-11T01:01:58.827Z,23.80
2023-02-11T01:04:26.205Z,22.73
2023-02-11T01:06:54.876Z,24.27
2023-02-11T01:09:22.201Z,24.07
2023-02-11T01:11:49.564Z,23.00
2023-02-11T01:14:16.960Z,24.03
2023-02-11T01:16:44.349Z,23.50
2023-02-11T01:19:11.695Z,23.57
2023-02-11T01:21:39.036Z,23.53
2023-02-11T01:24:07.937Z,24.63
2023-02-11T01:26:35.370Z,24.47
2023-02-11T01:29:02.813Z,23.97
2023-02-11T01:31:31.349Z,23.33
2023-02-11T01:33:58.858Z,23.70
2023-02-11T01:36:26.438Z,23.67
2023-02-11T01:38:53.771Z,25.07
2023-02-11T01:41:22.559Z,24.40
2023-02-11T01:43:50.401Z,23.67
2023-02-11T01:46:34.714Z,23.87
2023-02-11T01:49:05.338Z,22.87
2023-02-11T01:51:35.510Z,24.93
2023-02-11T01:54:21.390Z,23.43
2023-02-11T01:57:09.952Z,24.40
2023-02-11T01:59:39.649Z,25.10
2023-02-11T02:02:09.363Z,24.80
2023-02-11T02:04:39.826Z,25.43
2023-02-11T02:07:09.263Z,25.37
2023-02-11T02:09:38.922Z,23.13
2023-02-11T02:12:07.769Z,24.83
2023-02-11T02:14:38.618Z,24.47
2023-02-11T02:17:05.966Z,25.73
2023-02-11T02:19:55.109Z,23.73
2023-02-11T02:22:49.040Z,24.67
2023-02-11T02:25:37.363Z,24.93
2023-02-11T02:28:14.690Z,25.27
2023-02-11T02:30:54.328Z,22.83
2023-02-11T02:33:34.435Z,24.03
2023-02-11T02:36:07.174Z,25.30
2023-02-11T02:38:36.467Z,23.77
2023-02-11T02:41:05.142Z,24.67
2023-02-11T02:43:33.347Z,24.87
2023-02-11T02:46:11.036Z,24.23
2023-02-11T02:48:39.733Z,24.90
2023-02-11T02:51:11.474Z,24.73
2023-02-11T02:53:45.548Z,24.03
2023-02-11T02:56:15.298Z,27.23
2023-02-11T02:58:47.486Z,26.40
2023-02-11T03:01:20.801Z,26.63
2023-02-11T03:03:55.539Z,25.10
2023-02-11T03:06:26.914Z,25.27
2023-02-11T03:08:56.080Z,26.80
2023-02-11T03:11:24.121Z,26.83
2023-02-11T03:13:51.853Z,25.20
2023-02-11T03:16:20.848Z,26.97
2023-02-11T03:18:51.484Z,25.73
2023-02-11T03:21:19.981Z,27.20
2023-02-11T03:23:50.740Z,27.40
2023-02-11T03:26:21.050Z,25.80
2023-02-11T03:28:53.139Z,27.07
2023-02-11T03:31:22.759Z,25.23
2023-02-11T03:33:54.357Z,26.20
2023-02-11T03:36:23.788Z,26.23
2023-02-11T03:38:52.844Z,27.40
2023-02-11T03:41:22.526Z,27.67
2023-02-11T03:43:52.083Z,26.10
2023-02-11T03:46:21.480Z,27.57
2023-02-11T03:48:50.213Z,27.83
2023-02-11T03:51:19.438Z,27.00
2023-02-11T03:53:47.527Z,27.30
2023-02-11T03:56:16.803Z,27.40
2023-02-11T03:58:45.307Z,27.13
2023-02-11T04:01:12.851Z,25.70
2023-02-11T04:03:40.405Z,28.40
2023-02-11T04:06:07.898Z,26.73
2023-02-11T04:08:36.604Z,27.47
2023-02-11T04:11:03.951Z,26.57
2023-02-11T04:13:31.316Z,26.43
2023-02-11T04:15:58.704Z,27.53
2023-02-11T04:18:26.035Z,26.83
2023-02-11T04:20:53.410Z,25.80
2023-02-11T04:23:20.755Z,25.67
2023-02-11T04:25:49.996Z,25.60
2023-02-11T04:28:17.618Z,25.53
2023-02-11T04:30:45.006Z,25.40
2023-02-11T04:33:12.371Z,24.23
2023-02-11T04:35:39.760Z,24.47
2023-02-11T04:38:07.150Z,26.57
2023-02-11T04:40:34.528Z,26.33
2023-02-11T04:43:03.201Z,26.23
2023-02-11T04:45:30.574Z,24.47
2023-02-11T04:47:57.947Z,25.03
2023-02-11T04:50:25.285Z,26.07
2023-02-11T04:52:52.620Z,24.07
2023-02-11T04:55:20.114Z,24.43
2023-02-11T04:57:47.607Z,24.20
2023-02-11T05:00:17.153Z,24.80
2023-02-11T05:02:44.483Z,24.83
2023-02-11T05:05:11.819Z,24.77
2023-02-11T05:07:39.173Z,25.17
2023-02-11T05:10:06.756Z,23.17
2023-02-11T05:12:34.140Z,24.70
2023-02-11T05:15:01.462Z,25.10
2023-02-11T05:17:30.174Z,24.17
2023-02-11T05:19:57.506Z,25.20
2023-02-11T05:22:24.856Z,25.47
2023-02-11T05:24:52.184Z,25.23
2023-02-11T05:27:19.493Z,24.80
2023-02-11T05:29:46.830Z,24.53
2023-02-11T05:32:14.166Z,25.63
2023-02-11T05:34:42.907Z,25.40
2023-02-11T05:37:10.305Z,24.93
2023-02-11T05:39:37.676Z,25.37
2023-02-11T05:42:05.369Z,25.90
2023-02-11T05:44:32.699Z,22.63
2023-02-11T05:47:00.071Z,24.30
2023-02-11T05:49:27.492Z,24.47
2023-02-11T05:51:56.181Z,25.87
2023-02-11T05:54:23.562Z,25.53
2023-02-11T05:56:50.933Z,24.43
2023-02-11T05:59:18.281Z,24.00
2023-02-11T06:01:45.649Z,25.03
2023-02-11T06:04:12.984Z,24.17
2023-02-11T06:06:40.321Z,25.73
2023-02-11T06:09:09.861Z,26.20
2023-02-11T06:11:37.238Z,24.43
2023-02-11T06:14:04.597Z,27.50
2023-02-11T06:16:32.032Z,26.73
2023-02-11T06:18:59.420Z,27.50
2023-02-11T06:21:42.476Z,24.80
2023-02-11T06:24:12.413Z,25.40
2023-02-11T06:26:39.784Z,25.13
2023-02-11T06:29:07.217Z,27.07
2023-02-11T06:31:34.727Z,26.00
2023-02-11T06:34:02.179Z,25.70
2023-02-11T06:36:29.554Z,26.77
2023-02-11T06:38:56.919Z,26.47
2023-02-11T06:41:25.629Z,27.13
2023-02-11T06:43:53.460Z,25.73
2023-02-11T06:46:21.043Z,27.30
2023-02-11T06:48:48.407Z,27.90
2023-02-11T06:51:16.356Z,27.57
2023-02-11T06:53:45.128Z,26.73
2023-02-11T06:56:13.582Z,27.00
2023-02-11T06:58:42.240Z,26.20
2023-02-11T07:01:10.350Z,27.63
2023-02-11T07:03:38.541Z,26.60
2023-02-11T07:06:06.444Z,26.23
2023-02-11T07:08:33.958Z,26.90
2023-02-11T07:11:01.294Z,26.23
2023-02-11T07:13:28.703Z,26.17
2023-02-11T07:15:57.443Z,28.37
2023-02-11T07:18:24.821Z,27.20
2023-02-11T07:20:52.160Z,27.30
2023-02-11T07:23:19.496Z,27.33
2023-02-11T07:25:46.833Z,27.50
2023-02-11T07:28:14.231Z,27.83
2023-02-11T07:30:41.953Z,27.07
2023-02-11T07:33:10.649Z,27.87
2023-02-11T07:35:38.000Z,27.43
2023-02-11T07:38:05.390Z,28.17
2023-02-11T07:40:32.872Z,27.93
2023-02-11T07:43:01.601Z,26.27
2023-02-11T07:45:28.938Z,28.07
2023-02-11T07:47:56.260Z,27.37
2023-02-11T07:50:24.924Z,29.57
2023-02-11T07:52:52.262Z,25.63
2023-02-11T07:55:19.579Z,28.87
2023-02-11T07:57:46.970Z,26.87
2023-02-11T08:00:15.082Z,30.60
2023-02-11T08:02:42.567Z,25.80
2023-02-11T08:05:09.909Z,26.80
2023-02-11T08:07:38.650Z,28.53
2023-02-11T08:10:06.361Z,28.77
2023-02-11T08:12:33.683Z,26.47
2023-02-11T08:15:01.048Z,26.13
2023-02-11T08:17:28.384Z,23.80
2023-02-11T08:19:55.932Z,26.23
2023-02-11T08:22:23.291Z,26.67
2023-02-11T08:24:52.580Z,27.63
2023-02-11T08:27:19.954Z,29.23
2023-02-11T08:29:47.287Z,26.97
2023-02-11T08:32:14.674Z,28.33
2023-02-11T08:34:42.033Z,26.23
2023-02-11T08:37:09.890Z,26.13
2023-02-11T08:39:37.243Z,26.47
2023-02-11T08:42:05.990Z,26.03
2023-02-11T08:44:33.428Z,24.43
2023-02-11T08:47:00.804Z,24.37
2023-02-11T08:49:28.189Z,26.63
2023-02-11T08:51:56.348Z,25.63
2023-02-11T08:54:23.705Z,26.97
2023-02-11T08:56:51.785Z,24.37
2023-02-11T08:59:20.558Z,22.57
2023-02-11T09:01:48.036Z,24.27
2023-02-11T09:04:15.508Z,23.70
2023-02-11T09:06:42.882Z,25.40
2023-02-11T09:09:11.757Z,23.83
2023-02-11T09:11:40.582Z,24.73
2023-02-11T09:14:08.429Z,25.07
2023-02-11T09:16:37.354Z,22.40
2023-02-11T09:19:06.561Z,20.87
2023-02-11T09:21:33.945Z,23.57
2023-02-11T09:26:29.142Z,23.23
2023-02-11T09:28:56.529Z,24.90
2023-02-11T09:31:24.901Z,23.57
2023-02-11T09:33:54.504Z,23.30
2023-02-11T09:36:22.475Z,23.53
2023-02-11T09:38:50.121Z,22.83
2023-02-11T09:41:32.988Z,22.87
2023-02-11T09:44:02.822Z,23.50
2023-02-11T09:46:32.315Z,23.17
2023-02-11T09:49:01.169Z,23.13
2023-02-11T09:51:37.056Z,23.73
2023-02-11T09:54:06.469Z,23.27
2023-02-11T09:56:33.793Z,22.43
2023-02-11T09:59:01.225Z,23.70
2023-02-11T10:01:31.383Z,23.33
2023-02-11T10:04:05.217Z,22.70
2023-02-11T10:06:50.595Z,22.77
2023-02-11T10:09:22.981Z,25.03
2023-02-11T10:11:53.680Z,24.37
2023-02-11T10:14:26.268Z,23.33
2023-02-11T10:17:00.783Z,23.13
2023-02-11T10:19:44.943Z,23.03
2023-02-11T10:22:15.753Z,21.80
2023-02-11T10:24:49.475Z,22.27
2023-02-11T10:27:18.321Z,20.90
2023-02-11T10:29:49.219Z,22.33
2023-02-11T10:32:20.320Z,21.83
2023-02-11T10:34:49.080Z,20.10
2023-02-11T10:37:16.449Z,22.80
2023-02-11T10:39:43.854Z,22.13
2023-02-11T10:42:12.794Z,22.17
2023-02-11T10:44:42.515Z,22.63
2023-02-11T10:47:12.219Z,22.03
2023-02-11T10:49:40.550Z,22.00
2023-02-11T10:52:18.964Z,22.30
2023-02-11T10:54:56.879Z,21.53
2023-02-11T10:57:27.093Z,22.80
2023-02-11T10:59:58.247Z,21.43
2023-02-11T11:02:31.908Z,22.73
2023-02-11T11:05:00.601Z,22.83
2023-02-11T11:07:30.306Z,21.10
2023-02-11T11:09:59.691Z,21.50
2023-02-11T11:12:32.311Z,21.43
2023-02-11T11:15:00.458Z,20.37
2023-02-11T11:17:29.109Z,21.47
2023-02-11T11:20:14.406Z,23.03
2023-02-11T11:22:43.504Z,21.40
2023-02-11T11:25:21.527Z,21.33
2023-02-11T11:27:49.520Z,22.73
2023-02-11T11:30:17.712Z,22.93
2023-02-11T11:32:45.692Z,22.97
2023-02-11T11:35:22.579Z,22.17
2023-02-11T11:37:54.642Z,22.97
2023-02-11T11:40:23.650Z,21.73
2023-02-11T11:43:03.834Z,22.90
2023-02-11T11:45:31.271Z,23.20
2023-02-11T11:47:59.700Z,23.47
2023-02-11T11:50:30.035Z,23.37
2023-02-11T11:53:05.452Z,23.83
2023-02-11T11:55:35.762Z,22.43
2023-02-11T11:58:03.106Z,23.70
2023-02-11T12:00:34.871Z,24.77
2023-02-11T12:03:23.957Z,24.67
2023-02-11T12:05:56.230Z,27.97
2023-02-11T12:08:27.240Z,25.53
2023-02-11T12:10:59.285Z,22.90
2023-02-11T12:13:32.069Z,23.97
2023-02-11T12:16:04.654Z,22.60
2023-02-11T12:18:38.683Z,22.30
2023-02-11T12:21:14.619Z,22.50
2023-02-11T12:23:51.222Z,22.20
2023-02-11T12:26:19.951Z,24.20
2023-02-11T12:28:54.602Z,21.80
2023-02-11T12:31:27.355Z,21.97
2023-02-11T12:34:03.453Z,22.37
2023-02-11T12:36:37.995Z,22.50
2023-02-11T12:39:12.358Z,23.47
2023-02-11T12:42:07.915Z,23.87
2023-02-11T12:44:41.553Z,26.67
2023-02-11T12:47:15.027Z,30.57
2023-02-11T12:49:48.581Z,28.93
2023-02-11T12:52:21.107Z,33.33
2023-02-11T12:54:55.087Z,24.93
2023-02-11T12:57:24.229Z,28.67
2023-02-11T12:59:56.480Z,24.30
2023-02-11T13:02:28.629Z,25.13
2023-02-11T13:04:57.588Z,23.57
2023-02-11T13:07:28.501Z,26.40
2023-02-11T13:09:59.762Z,27.43
2023-02-11T13:12:46.101Z,31.37
2023-02-11T13:15:15.358Z,29.80
2023-02-11T13:17:47.078Z,27.00
2023-02-11T13:20:19.430Z,34.23
2023-02-11T13:22:49.658Z,31.73
2023-02-11T13:25:22.209Z,29.00
2023-02-11T13:27:58.574Z,23.77
2023-02-11T13:30:29.199Z,25.13
2023-02-11T13:33:07.490Z,26.63
2023-02-11T13:35:36.076Z,25.43
2023-02-11T13:38:04.189Z,25.10
2023-02-11T13:40:34.232Z,24.43
2023-02-11T13:43:03.336Z,24.67
2023-02-11T13:45:31.721Z,24.03
2023-02-11T13:47:59.406Z,22.13
2023-02-11T13:50:27.670Z,23.07
2023-02-11T13:52:58.801Z,22.20
2023-02-11T13:55:27.481Z,22.00
2023-02-11T13:58:09.702Z,17.33
2023-02-11T14:00:46.937Z,17.83
2023-02-11T14:03:41.533Z,17.23
2023-02-11T14:06:30.867Z,17.70
2023-02-11T14:09:07.773Z,17.53
2023-02-11T14:11:49.028Z,17.77
2023-02-11T14:14:17.877Z,17.23
2023-02-11T14:17:02.962Z,17.83
2023-02-11T14:19:35.285Z,17.57
2023-02-11T14:22:03.295Z,17.47
2023-02-11T14:24:49.172Z,17.50
2023-02-11T14:27:20.742Z,18.50
2023-02-11T14:29:52.229Z,20.17
2023-02-11T14:32:26.430Z,20.50
2023-02-11T14:35:01.256Z,18.60
2023-02-11T14:37:33.897Z,18.67
2023-02-11T14:40:09.122Z,18.53
2023-02-11T14:42:38.965Z,18.50
2023-02-11T14:45:08.535Z,19.17
2023-02-11T14:47:40.964Z,20.13
2023-02-11T14:50:15.387Z,19.90
2023-02-11T14:52:43.269Z,19.57
2023-02-11T14:55:17.916Z,19.20
2023-02-11T14:57:45.776Z,21.67
2023-02-11T15:00:17.450Z,29.77
2023-02-11T15:02:45.344Z,23.03
2023-02-11T15:05:21.635Z,27.57
2023-02-11T15:07:50.010Z,20.97
2023-02-11T15:10:25.184Z,20.40
2023-02-11T15:12:53.518Z,21.67
2023-02-11T15:15:20.889Z,19.60
2023-02-11T15:17:48.367Z,21.03
2023-02-11T15:20:22.914Z,21.03
2023-02-11T15:22:53.054Z,21.13
2023-02-11T15:25:21.304Z,20.23
2023-02-11T15:27:49.548Z,20.87
2023-02-11T15:30:30.187Z,21.47
2023-02-11T15:32:59.918Z,21.13
2023-02-11T15:35:30.097Z,20.53
2023-02-11T15:37:58.325Z,19.60
2023-02-11T15:40:27.721Z,22.03
2023-02-11T15:42:58.432Z,23.27
2023-02-11T15:45:29.626Z,20.17
2023-02-11T15:47:58.750Z,21.33
2023-02-11T15:50:27.187Z,22.63
2023-02-11T15:52:56.352Z,20.43
2023-02-11T15:55:24.589Z,20.80
2023-02-11T15:57:56.142Z,21.10
2023-02-11T16:00:24.778Z,21.53
2023-02-11T16:02:52.875Z,20.73
2023-02-11T16:05:26.539Z,20.40
2023-02-11T16:07:53.944Z,36.97
2023-02-11T16:10:27.172Z,26.30
2023-02-11T16:12:55.519Z,28.00
2023-02-11T16:15:29.361Z,21.67
2023-02-11T16:17:56.834Z,20.93
2023-02-11T16:20:24.222Z,24.93
2023-02-11T16:22:51.595Z,24.83
2023-02-11T16:25:19.899Z,23.30
2023-02-11T16:27:52.032Z,25.30
2023-02-11T16:30:24.739Z,22.40
2023-02-11T16:32:53.744Z,23.17
2023-02-11T16:35:21.350Z,30.23
2023-02-11T16:37:48.670Z,23.27
2023-02-11T16:40:16.272Z,23.33
2023-02-11T16:42:43.642Z,24.27
2023-02-11T16:45:12.327Z,34.83
2023-02-11T16:47:42.229Z,24.07
2023-02-11T16:50:10.387Z,23.50
2023-02-11T16:52:38.573Z,23.63
2023-02-11T16:55:06.317Z,24.83
2023-02-11T16:57:33.704Z,24.57
2023-02-11T17:00:01.152Z,25.27
2023-02-11T17:02:31.332Z,27.97
2023-02-11T17:04:59.658Z,26.27
2023-02-11T17:07:27.427Z,31.17
2023-02-11T17:09:54.768Z,28.13
2023-02-11T17:12:25.284Z,26.10
2023-02-11T17:14:52.680Z,28.37
2023-02-11T17:17:21.933Z,26.67
2023-02-11T17:19:51.143Z,37.87
2023-02-11T17:22:18.593Z,27.00
2023-02-11T17:24:45.949Z,27.23
2023-02-11T17:27:13.840Z,28.57
2023-02-11T17:29:41.230Z,35.07
2023-02-11T17:32:08.623Z,32.93
2023-02-11T17:34:35.965Z,27.87
2023-02-11T17:37:09.090Z,31.47
2023-02-11T17:39:36.484Z,27.33
2023-02-11T17:42:03.878Z,25.57
2023-02-11T17:44:31.246Z,26.47
2023-02-11T17:46:58.572Z,28.03
2023-02-11T17:49:27.458Z,26.43
2023-02-11T17:51:54.810Z,27.20
2023-02-11T17:54:24.714Z,26.67
2023-02-11T17:56:55.218Z,26.93
2023-02-11T17:59:25.247Z,26.33
2023-02-11T18:01:52.683Z,25.27
2023-02-11T18:04:20.949Z,27.33
2023-02-11T18:06:48.427Z,27.93
2023-02-11T18:09:15.771Z,31.63
2023-02-11T18:11:44.479Z,25.77
2023-02-11T18:14:12.053Z,25.97
2023-02-11T18:16:42.888Z,30.43
2023-02-11T18:19:11.393Z,28.67
2023-02-11T18:21:38.723Z,29.57
2023-02-11T18:24:07.244Z,29.00
2023-02-11T18:26:35.114Z,27.40
2023-02-11T18:29:06.160Z,28.27
2023-02-11T18:31:35.202Z,27.57
2023-02-11T18:34:02.989Z,26.40
2023-02-11T18:36:30.337Z,28.00
2023-02-11T18:38:59.616Z,28.90
2023-02-11T18:41:26.994Z,27.43
2023-02-11T18:43:54.646Z,30.03
2023-02-11T18:46:23.462Z,29.37
2023-02-11T18:48:54.959Z,32.23
2023-02-11T18:51:23.206Z,37.97
2023-02-11T18:53:50.622Z,32.87
2023-02-11T18:56:18.925Z,28.30
2023-02-11T18:58:46.271Z,29.13
2023-02-11T19:01:14.614Z,30.00
2023-02-11T19:03:43.435Z,31.40
2023-02-11T19:06:14.881Z,32.80
2023-02-11T19:08:42.346Z,32.40
2023-02-11T19:11:09.685Z,31.40
2023-02-11T19:13:37.548Z,31.10
2023-02-11T19:16:07.718Z,35.67
2023-02-11T19:18:36.091Z,38.30
2023-02-11T19:21:08.771Z,39.93
2023-02-11T19:23:36.635Z,39.00
2023-02-11T19:26:04.820Z,35.77
2023-02-11T19:28:32.290Z,36.63
2023-02-11T19:31:05.575Z,28.87
2023-02-11T19:33:33.011Z,32.07
2023-02-11T19:36:03.025Z,35.67
2023-02-11T19:38:31.761Z,32.73
2023-02-11T19:40:59.182Z,30.43
2023-02-11T19:43:26.710Z,29.73
2023-02-11T19:45:56.271Z,30.80
2023-02-11T19:48:23.673Z,32.00
2023-02-11T19:50:51.302Z,33.27
2023-02-11T19:53:18.656Z,41.07
2023-02-11T19:55:47.584Z,34.27
2023-02-11T19:58:14.950Z,32.80
2023-02-11T20:00:42.268Z,32.50
2023-02-11T20:03:09.594Z,32.40
2023-02-11T20:05:42.239Z,32.20
2023-02-11T20:08:09.589Z,30.70
2023-02-11T20:10:36.925Z,32.77
2023-02-11T20:13:05.753Z,38.77
2023-02-11T20:15:33.152Z,32.87
2023-02-11T20:18:00.500Z,31.33
2023-02-11T20:20:27.889Z,33.10
2023-02-11T20:22:55.281Z,34.73
2023-02-11T20:25:22.618Z,30.83
2023-02-11T20:27:49.955Z,32.40
2023-02-11T20:30:18.773Z,33.17
2023-02-11T20:32:46.111Z,33.80
2023-02-11T20:35:13.459Z,34.23
2023-02-11T20:37:43.792Z,33.80
2023-02-11T20:40:11.879Z,31.17
2023-02-11T20:42:39.672Z,32.03
2023-02-11T20:45:07.229Z,31.20
2023-02-11T20:47:35.919Z,32.03
2023-02-11T20:50:03.319Z,32.67
2023-02-11T20:52:30.710Z,32.50
2023-02-11T20:54:58.175Z,33.00
2023-02-11T20:57:25.529Z,33.87
2023-02-11T20:59:52.891Z,31.37
2023-02-11T21:02:22.345Z,33.87
2023-02-11T21:04:52.251Z,33.67
2023-02-11T21:07:19.903Z,34.40
2023-02-11T21:09:47.209Z,38.33
2023-02-11T21:12:14.542Z,34.30
2023-02-11T21:14:42.003Z,33.73
2023-02-11T21:17:09.357Z,33.23
2023-02-11T21:19:36.681Z,34.27
2023-02-11T21:22:05.390Z,33.90
2023-02-11T21:24:32.713Z,32.13
2023-02-11T21:27:00.100Z,34.23
2023-02-11T21:29:27.467Z,35.47
2023-02-11T21:31:54.828Z,36.33
2023-02-11T21:34:22.229Z,31.23
2023-02-11T21:36:51.049Z,31.43
2023-02-11T21:39:20.224Z,34.13
2023-02-11T21:41:47.560Z,36.00
2023-02-11T21:44:14.903Z,41.93
2023-02-11T21:46:42.330Z,34.43
2023-02-11T21:49:10.015Z,33.63
2023-02-11T21:51:37.363Z,41.37
2023-02-11T21:54:04.826Z,34.83
2023-02-11T21:56:35.313Z,32.47
2023-02-11T21:59:02.756Z,32.30
2023-02-11T22:01:30.925Z,31.23
2023-02-11T22:03:58.498Z,30.77
2023-02-11T22:06:27.045Z,30.70
2023-02-11T22:08:54.822Z,30.30
2023-02-11T22:11:22.430Z,29.03
2023-02-11T22:13:53.555Z,27.43
2023-02-11T22:16:20.959Z,28.40
2023-02-11T22:18:48.435Z,29.40
2023-02-11T22:21:17.056Z,26.67
2023-02-11T22:23:44.526Z,28.43
2023-02-11T22:26:13.354Z,31.73
2023-02-11T22:28:40.943Z,27.00
2023-02-11T22:31:12.058Z,28.37
2023-02-11T22:33:39.490Z,26.93
2023-02-11T22:36:08.477Z,29.13
2023-02-11T22:38:36.238Z,28.47
2023-02-11T22:41:06.778Z,28.40
2023-02-11T22:43:34.181Z,26.77
2023-02-11T22:46:01.660Z,30.43
2023-02-11T22:48:30.453Z,30.00
2023-02-11T22:50:57.839Z,26.63
2023-02-11T22:53:25.580Z,27.63
2023-02-11T22:55:53.157Z,28.13
2023-02-11T22:58:20.600Z,26.93
2023-02-11T23:00:47.978Z,26.30
2023-02-11T23:03:15.504Z,27.57
2023-02-11T23:05:44.261Z,26.67
2023-02-11T23:08:12.630Z,27.20
2023-02-11T23:10:40.714Z,27.70
2023-02-11T23:13:10.062Z,26.77
2023-02-11T23:15:39.491Z,27.50
2023-02-11T23:18:06.895Z,25.97
2023-02-11T23:20:34.874Z,26.10
2023-02-11T23:23:03.831Z,25.63
2023-02-11T23:25:31.636Z,27.67
2023-02-11T23:27:59.015Z,26.03
2023-02-11T23:30:26.640Z,25.63
2023-02-11T23:32:53.986Z,25.57
2023-02-11T23:35:23.166Z,26.10
2023-02-11T23:37:51.150Z,25.17
2023-02-11T23:40:20.343Z,26.53
2023-02-11T23:42:49.015Z,25.93
2023-02-11T23:45:16.578Z,24.77
2023-02-11T23:47:44.999Z,25.13
2023-02-11T23:50:12.634Z,28.07
2023-02-11T23:52:39.955Z,25.23
2023-02-11T23:55:07.818Z,26.27
2023-02-11T23:57:36.487Z,26.40
